Time;durP1;ratioP1;P1;durP2;ratioP2;P2;SDS_P1;SDS_P2;PMS_P1;PMS_P2;Temp;Humidity;BMP_temperature;BMP_pressure;BME280_temperature;BME280_humidity;BME280_pressure;Samples;Min_cycle;Max_cycle;Signal;HPM_P1;HPM_P2
2021/05/14 12:52:48;;;;;;;;;;;;;;;;;;;;;
2021/05/14 12:59:06;;;;;;;;;;;;;;;;;;;;;
2021/05/14 13:02:09;;;;;;;27.77;2.80;;;15.90;61.20;;;;;;4881488;29;20455;-83
2021/05/14 13:04:51;;;;;;;27.10;3.50;;;16.20;41.70;;;;;;4873329;29;20463;-81
2021/05/14 13:24:18;;;;;;;;;;;;;;;;;;;;;
2021/05/14 13:27:10;;;;;;;41.97;9.37;;;20.20;4.90;;;;;;4778635;29;20555;-83
2021/05/14 13:29:40;;;;;;;42.30;3.90;;;19.50;4.20;;;;;;4878864;29;20579;-83
2021/05/14 13:32:14;;;;;;;40.60;4.00;;;18.70;5.60;;;;;;4878945;29;20498;-82
2021/05/14 13:35:04;;;;;;;40.33;3.50;;;18.50;7.40;;;;;;4878275;29;20612;-82
2021/05/14 13:37:34;;;;;;;38.17;3.10;;;18.40;7.50;;;;;;4879088;29;20466;-82
2021/05/14 13:40:38;;;;;;;40.40;3.20;;;18.10;9.30;;;;;;4879062;29;20616;-82
2021/05/14 13:49:52;;;;;;;;;;;;;;;;;;;;;
2021/05/14 13:53:01;;;;;;;33.40;2.43;;;16.90;13.30;;;;;;4857314;29;20502;-83
2021/05/14 13:56:20;;;;;;;32.23;2.47;;;16.60;17.30;;;;;;4769180;30;20961;-83
2021/05/14 13:59:26;;;;;;;;;;;;;;;;;;;;;
2021/05/14 14:16:32;;;;;;;24.50;1.60;;;14.40;24.10;;;;;;5091078;27;20558;-84
2021/05/14 14:19:09;;;;;;;21.47;3.17;;;12.70;99.90;;;;;;5059398;28;20446;-83
2021/05/14 14:21:37;;;;;;;22.37;6.70;;;12.70;99.90;;;;;;5086320;28;20477;-83
2021/05/14 14:24:05;;;;;;;18.77;4.97;;;12.70;99.90;;;;;;5087696;28;20533;-82
2021/05/14 14:26:42;;;;;;;22.90;12.53;;;12.50;99.90;;;;;;5088229;28;20552;-83
2021/05/14 14:29:11;;;;;;;23.30;13.17;;;12.80;99.90;;;;;;5087567;28;20970;-84
2021/05/14 14:31:40;;;;;;;21.57;10.60;;;13.20;99.90;;;;;;5088791;28;20454;-84
2021/05/14 14:34:12;;;;;;;23.07;3.60;;;13.30;99.90;;;;;;5087250;28;20450;-83
2021/05/14 14:36:40;;;;;;;17.10;3.30;;;13.30;99.90;;;;;;5087663;28;20818;-83
2021/05/14 14:39:21;;;;;;;18.30;2.20;;;13.80;99.90;;;;;;5085387;28;20453;-84
2021/05/14 14:41:57;;;;;;;17.13;1.20;;;14.80;97.20;;;;;;5023662;28;20444;-84
2021/05/14 14:44:25;;;;;;;18.20;1.03;;;15.90;55.30;;;;;;5026681;28;21066;-83
2021/05/14 14:46:53;;;;;;;18.57;0.93;;;16.40;48.10;;;;;;5028543;28;20467;-84
2021/05/14 14:49:30;;;;;;;20.20;1.10;;;17.30;32.80;;;;;;5026704;28;20452;-84
2021/05/14 14:59:01;;;;;;;30.10;1.50;;;17.50;17.70;;;;;;4968138;28;20509;-84
2021/05/14 15:01:54;;;;;;;28.07;1.13;;;18.00;10.80;;;;;;5027907;28;20479;-85
2021/05/14 15:30:25;;;;;;;37.33;3.03;;;21.70;1.00;;;;;;5800899;23;20479;-83
2021/05/14 16:01:30;;;;;;;46.40;2.87;;;23.10;1.00;;;;;;4935759;29;20447;-81
2021/05/14 16:04:19;;;;;;;46.90;2.53;;;23.70;1.00;;;;;;4934577;29;20509;-83
2021/05/14 16:13:43;;;;;;;;;;;;;;;;;;;;;
2021/05/14 16:25:52;;;;;;;;;;;;;;;;;;;;;
2021/05/14 16:28:27;;;;;;;49.90;4.90;;;25.80;1.00;;;;;;4907861;29;20490;-82
2021/05/14 16:35:13;;;;;;;50.83;6.27;;;26.70;1.00;;;;;;4748997;29;20508;-82
2021/05/14 16:48:48;;;;;;;;;;;;;;;;;;;;;
2021/05/14 17:03:10;;;;;;;52.67;7.97;;;23.40;1.00;;;;;;4836013;29;20578;-84
2021/05/14 17:12:49;;;;;;;;;;;;;;;;;;;;;
2021/05/14 17:15:24;;;;;;;47.63;2.17;;;18.70;1.00;;;;;;4877152;29;20483;-85
2021/05/14 17:18:34;;;;;;;44.80;2.00;;;18.30;1.00;;;;;;4931614;29;20480;-83
2021/05/14 17:21:02;;;;;;;40.90;1.77;;;18.10;1.00;;;;;;4945161;29;20451;-85
2021/05/14 17:24:09;;;;;;;39.07;1.77;;;17.30;1.00;;;;;;4955113;29;20471;-84
2021/05/14 17:26:49;;;;;;;39.23;2.37;;;17.20;1.00;;;;;;4933101;29;20964;-83
2021/05/14 17:29:45;;;;;;;36.07;1.80;;;16.90;1.00;;;;;;4935937;29;20812;-85
2021/05/14 17:32:25;;;;;;;33.90;1.70;;;16.60;6.70;;;;;;4935892;29;20452;-84
2021/05/14 17:34:57;;;;;;;32.27;2.03;;;15.90;13.70;;;;;;4934875;29;20547;-84
2021/05/14 17:37:30;;;;;;;31.03;1.93;;;15.70;17.50;;;;;;4935677;29;20469;-84
2021/05/14 17:40:08;;;;;;;31.17;1.90;;;15.40;21.40;;;;;;4937208;29;20485;-85
2021/05/14 17:46:20;;;;;;;;;;;;;;;;;;;;;
2021/05/14 17:51:28;;;;;;;27.70;1.40;;;14.90;38.50;;;;;;4909312;29;20945;-84
2021/05/14 17:53:55;;;;;;;25.63;1.60;;;14.80;32.00;;;;;;4935469;29;20500;-85
2021/05/14 17:56:30;;;;;;;25.57;1.60;;;14.70;31.00;;;;;;4935625;29;20552;-84
2021/05/14 17:59:02;;;;;;;27.20;1.90;;;14.60;30.20;;;;;;4935524;29;20488;-84
2021/05/14 18:01:28;;;;;;;24.27;1.50;;;14.50;31.10;;;;;;4935236;29;20473;-84
2021/05/14 18:03:55;;;;;;;23.83;1.40;;;14.40;32.40;;;;;;4940585;29;20460;-83
2021/05/14 18:06:26;;;;;;;24.40;1.60;;;14.30;34.10;;;;;;4941056;29;20909;-84
2021/05/14 18:12:13;;;;;;;23.77;1.60;;;14.00;46.10;;;;;;4938405;28;20503;-84
2021/05/14 18:14:39;;;;;;;24.73;2.00;;;14.00;56.00;;;;;;4935317;29;20499;-85
2021/05/14 18:17:09;;;;;;;24.43;2.60;;;13.80;52.70;;;;;;4936171;29;20564;-85
2021/05/14 18:19:46;;;;;;;22.30;1.80;;;13.60;53.00;;;;;;4934503;29;20457;-84
2021/05/14 18:22:41;;;;;;;;;;;;;;;;;;;;;
2021/05/14 18:25:16;;;;;;;21.90;1.97;;;13.40;60.30;;;;;;4934516;29;20543;-84
2021/05/14 18:27:49;;;;;;;21.80;2.00;;;13.30;64.00;;;;;;4934895;29;20464;-83
2021/05/14 18:30:20;;;;;;;20.03;1.73;;;13.20;66.80;;;;;;4935335;29;20949;-83
2021/05/14 18:33:13;;;;;;;19.17;1.50;;;13.20;69.70;;;;;;4935045;29;20795;-84
2021/05/14 18:35:43;;;;;;;19.23;1.20;;;13.00;71.30;;;;;;4934461;29;20492;-84
2021/05/14 18:39:04;;;;;;;;;;;;;;;;;;;;;
2021/05/14 18:42:00;;;;;;;20.53;1.40;;;13.00;68.10;;;;;;4935331;29;20449;-85
2021/05/14 18:44:38;;;;;;;18.97;1.20;;;12.90;71.60;;;;;;4935275;29;20460;-84
2021/05/14 18:47:20;;;;;;;19.50;1.30;;;12.90;75.40;;;;;;4937049;29;20479;-84
2021/05/14 18:50:04;;;;;;;20.17;1.60;;;12.70;83.40;;;;;;4953623;28;20530;-84
2021/05/14 18:52:32;;;;;;;19.93;1.50;;;12.70;91.00;;;;;;4955679;29;20479;-85
2021/05/14 18:55:14;;;;;;;20.13;1.20;;;12.50;90.30;;;;;;4957963;29;20487;-83
2021/05/14 19:00:53;;;;;;;18.27;1.60;;;12.20;97.80;;;;;;4949153;28;20492;-84
2021/05/14 19:03:31;;;;;;;25.00;1.93;;;12.10;99.20;;;;;;4943871;29;20569;-82
2021/05/14 19:05:59;;;;;;;17.10;1.77;;;12.10;99.90;;;;;;4944352;29;20459;-84
2021/05/14 19:08:30;;;;;;;19.70;1.57;;;12.00;99.90;;;;;;4938480;29;20465;-83
2021/05/14 19:10:56;;;;;;;15.37;1.83;;;11.90;99.90;;;;;;4938624;29;20961;-83
2021/05/14 19:13:25;;;;;;;15.63;2.53;;;11.70;99.90;;;;;;4957009;29;21029;-83
2021/05/14 19:16:10;;;;;;;15.17;2.10;;;11.60;99.90;;;;;;4951732;29;20496;-84
2021/05/14 19:21:48;;;;;;;14.40;2.00;;;11.50;99.90;;;;;;4948772;29;20507;-85
2021/05/14 19:24:24;;;;;;;14.97;2.60;;;11.40;99.90;;;;;;4949078;28;20508;-82
2021/05/14 19:37:00;;;;;;;14.40;2.97;;;11.60;99.90;;;;;;4938236;29;20473;-84
2021/05/14 19:43:32;;;;;;;15.37;4.50;;;11.50;99.90;;;;;;4936951;29;20964;-84
2021/05/14 19:54:24;;;;;;;;;;;;;;;;;;;;;
2021/05/14 19:57:22;;;;;;;16.57;3.60;;;11.50;99.90;;;;;;4936892;29;20507;-83
2021/05/14 20:00:42;;;;;;;;;;;;;;;;;;;;;
2021/05/14 20:14:15;;;;;;;;;;;;;;;;;;;;;
2021/05/14 20:17:39;;;;;;;;;;;;;;;;;;;;;
2021/05/14 20:20:23;;;;;;;;;;;;;;;;;;;;;
2021/05/14 20:22:51;;;;;;;14.97;2.17;;;11.70;99.90;;;;;;4855207;29;20460;-80
2021/05/14 20:25:19;;;;;;;15.40;2.50;;;11.60;99.90;;;;;;4936825;29;20540;-83
2021/05/14 20:27:49;;;;;;;15.80;2.60;;;11.50;99.90;;;;;;4936599;29;21030;-84
2021/05/14 20:30:23;;;;;;;15.47;2.30;;;11.30;99.90;;;;;;4936983;29;20500;-84
2021/05/14 20:32:54;;;;;;;14.90;2.30;;;11.20;99.90;;;;;;4936160;29;20507;-83
2021/05/14 20:35:30;;;;;;;14.30;2.20;;;11.10;99.90;;;;;;4936693;29;20810;-82
2021/05/14 20:38:00;;;;;;;14.03;2.00;;;11.00;99.90;;;;;;4936234;29;20484;-82
2021/05/14 20:40:34;;;;;;;14.20;1.60;;;11.10;99.90;;;;;;4937056;29;20488;-84
2021/05/14 20:43:08;;;;;;;14.00;2.13;;;10.90;99.90;;;;;;4936521;29;20560;-83
2021/05/14 20:45:37;;;;;;;14.93;2.17;;;10.70;99.90;;;;;;4936880;29;20460;-83
2021/05/14 20:48:04;;;;;;;27.23;2.57;;;10.70;99.90;;;;;;4935035;29;20484;-84
2021/05/14 20:50:44;;;;;;;;;;;;;;;;;;;;;
2021/05/14 20:53:11;;;;;;;14.17;2.20;;;10.80;99.90;;;;;;4935398;29;21022;-84
2021/05/14 20:55:52;;;;;;;12.73;2.30;;;10.60;99.90;;;;;;4936004;29;20492;-84
2021/05/14 20:58:26;;;;;;;13.23;2.80;;;10.30;99.90;;;;;;4917435;29;20488;-84
2021/05/14 21:00:53;;;;;;;13.37;4.20;;;10.20;99.90;;;;;;4922254;29;21022;-84
2021/05/14 21:03:27;;;;;;;13.23;5.30;;;9.90;99.90;;;;;;4935177;29;20483;-84
2021/05/14 21:06:09;;;;;;;13.97;7.47;;;9.70;99.90;;;;;;4936067;29;20846;-84
2021/05/14 21:08:39;;;;;;;13.83;7.47;;;9.60;99.90;;;;;;4936010;29;20494;-84
2021/05/14 21:11:06;;;;;;;14.50;12.23;;;9.40;99.90;;;;;;4936184;29;20495;-85
2021/05/14 21:13:37;;;;;;;19.47;17.67;;;9.30;99.90;;;;;;4935055;29;20519;-83
2021/05/14 21:16:26;;;;;;;;;;;;;;;;;;;;;
2021/05/14 21:18:54;;;;;;;28.00;25.87;;;9.10;99.90;;;;;;4934740;29;20484;-84
2021/05/14 21:21:32;;;;;;;32.00;29.60;;;8.90;99.90;;;;;;4935841;29;20560;-83
2021/05/14 21:23:59;;;;;;;39.00;36.53;;;8.80;99.90;;;;;;4935736;29;20559;-83
2021/05/14 21:26:29;;;;;;;47.00;44.30;;;8.80;99.90;;;;;;4935516;29;20460;-84
2021/05/14 21:28:58;;;;;;;52.30;49.50;;;8.90;99.90;;;;;;4936253;29;20457;-84
2021/05/14 21:31:29;;;;;;;64.87;61.37;;;8.80;99.90;;;;;;4935621;29;20468;-83
2021/05/14 21:33:56;;;;;;;77.37;73.67;;;8.80;99.90;;;;;;4934568;29;20519;-83
2021/05/14 21:36:23;;;;;;;83.50;79.40;;;8.60;99.90;;;;;;4935400;29;20453;-84
2021/05/14 21:38:50;;;;;;;91.77;87.23;;;8.70;99.90;;;;;;4935456;29;20491;-84
2021/05/14 21:41:17;;;;;;;95.43;90.83;;;8.90;99.90;;;;;;4935792;29;20461;-84
2021/05/14 21:43:45;;;;;;;96.70;92.10;;;8.90;99.90;;;;;;4935863;29;20960;-84
2021/05/14 21:46:20;;;;;;;113.30;107.90;;;9.10;99.90;;;;;;4935815;29;21012;-84
2021/05/14 21:48:49;;;;;;;109.73;104.37;;;9.10;99.90;;;;;;4934311;29;20945;-84
2021/05/14 21:51:16;;;;;;;110.57;105.40;;;9.00;99.90;;;;;;4916803;29;20533;-84
2021/05/14 21:53:45;;;;;;;115.67;110.33;;;8.90;99.90;;;;;;4931558;29;20465;-83
2021/05/14 21:56:19;;;;;;;124.43;118.77;;;8.80;99.90;;;;;;4935448;29;20509;-84
2021/05/14 21:58:47;;;;;;;129.83;123.83;;;8.70;99.90;;;;;;4935278;29;20512;-84
2021/05/14 22:01:21;;;;;;;130.93;125.07;;;8.60;99.90;;;;;;4935406;29;20461;-84
2021/05/14 22:03:49;;;;;;;128.53;122.77;;;8.80;99.90;;;;;;4934029;29;20464;-84
2021/05/14 22:06:16;;;;;;;125.73;119.97;;;8.60;99.90;;;;;;4935610;29;20461;-84
2021/05/14 22:08:45;;;;;;;136.77;130.60;;;8.70;99.90;;;;;;4935244;29;20548;-83
2021/05/14 22:11:11;;;;;;;133.37;127.47;;;8.60;99.90;;;;;;4935399;29;21010;-83
2021/05/14 22:13:39;;;;;;;138.80;132.57;;;8.60;99.90;;;;;;4934917;29;20448;-84
2021/05/14 22:16:13;;;;;;;133.87;127.73;;;8.80;99.90;;;;;;4935505;29;20545;-84
2021/05/14 22:18:42;;;;;;;142.53;136.17;;;8.60;99.90;;;;;;4933968;29;20519;-84
2021/05/14 22:21:26;;;;;;;136.50;130.27;;;8.80;99.90;;;;;;4935160;29;20452;-84
2021/05/14 22:23:53;;;;;;;146.60;139.83;;;8.90;99.90;;;;;;4935420;29;20445;-83
2021/05/14 22:26:24;;;;;;;151.70;144.87;;;8.80;99.90;;;;;;4937647;29;20476;-83
2021/05/14 22:28:55;;;;;;;152.47;145.67;;;9.00;99.90;;;;;;4939291;29;20547;-84
2021/05/14 22:31:23;;;;;;;159.13;152.00;;;9.00;99.90;;;;;;4938971;29;20444;-84
2021/05/14 22:33:54;;;;;;;167.67;160.27;;;9.10;99.90;;;;;;4937926;29;20464;-84
2021/05/14 22:36:25;;;;;;;165.00;157.83;;;8.90;99.90;;;;;;4938858;29;20551;-83
2021/05/14 22:38:54;;;;;;;165.17;157.77;;;9.00;99.90;;;;;;4939066;29;20984;-83
2021/05/14 22:41:27;;;;;;;164.07;156.83;;;8.90;99.90;;;;;;4939049;29;20463;-83
2021/05/14 22:43:53;;;;;;;162.03;154.97;;;8.90;99.90;;;;;;4938980;29;20488;-84
2021/05/14 22:46:24;;;;;;;154.20;146.77;;;8.90;99.90;;;;;;4938639;29;20457;-83
2021/05/14 22:48:53;;;;;;;159.63;152.37;;;9.00;99.90;;;;;;4937264;29;20448;-83
2021/05/14 22:51:20;;;;;;;161.30;154.03;;;9.10;99.90;;;;;;4938819;29;20460;-83
2021/05/14 22:53:49;;;;;;;163.97;156.67;;;9.20;99.90;;;;;;4938537;29;20471;-83
2021/05/14 22:56:20;;;;;;;135.13;128.93;;;9.50;99.90;;;;;;4939011;29;20471;-84
2021/05/14 22:58:46;;;;;;;126.80;121.10;;;9.50;99.90;;;;;;4938600;29;20510;-84
2021/05/14 23:01:23;;;;;;;118.10;112.33;;;9.60;99.90;;;;;;4938702;29;20461;-83
2021/05/14 23:03:49;;;;;;;112.97;107.83;;;9.60;99.90;;;;;;4936853;29;20975;-83
2021/05/14 23:06:16;;;;;;;113.43;108.03;;;9.50;99.90;;;;;;4938353;29;20460;-83
2021/05/14 23:08:42;;;;;;;114.07;108.87;;;9.50;99.90;;;;;;4938284;29;21081;-84
2021/05/14 23:11:09;;;;;;;117.70;112.47;;;9.40;99.90;;;;;;4938430;29;20862;-83
2021/05/14 23:13:36;;;;;;;119.77;114.07;;;9.30;99.90;;;;;;4937985;29;20547;-83
2021/05/14 23:16:07;;;;;;;130.10;123.90;;;9.30;99.90;;;;;;4938383;29;20503;-84
2021/05/14 23:18:33;;;;;;;120.70;115.03;;;9.10;99.90;;;;;;4936682;29;20468;-84
2021/05/14 23:21:00;;;;;;;125.93;119.77;;;9.10;99.90;;;;;;4938176;29;20518;-83
2021/05/14 23:23:30;;;;;;;121.13;115.43;;;8.80;99.90;;;;;;4938243;29;20991;-83
2021/05/14 23:26:01;;;;;;;123.77;117.93;;;8.80;99.90;;;;;;4937939;29;20483;-83
2021/05/14 23:28:31;;;;;;;129.70;123.63;;;8.80;99.90;;;;;;4937827;29;20983;-83
2021/05/14 23:30:58;;;;;;;139.67;132.97;;;8.80;99.90;;;;;;4938110;29;20457;-83
2021/05/14 23:33:24;;;;;;;143.00;136.23;;;8.60;99.90;;;;;;4936292;29;20512;-82
2021/05/14 23:35:51;;;;;;;148.57;141.47;;;8.70;99.90;;;;;;4937579;29;20485;-83
2021/05/14 23:38:19;;;;;;;153.77;146.37;;;8.40;99.90;;;;;;4937751;29;20453;-83
2021/05/14 23:40:47;;;;;;;157.97;150.27;;;8.40;99.90;;;;;;4937955;29;20984;-83
2021/05/14 23:43:16;;;;;;;172.33;164.43;;;8.40;99.90;;;;;;4937413;29;20452;-82
2021/05/14 23:45:43;;;;;;;170.83;162.43;;;8.10;99.90;;;;;;4937614;29;20493;-83
2021/05/14 23:48:10;;;;;;;177.13;169.07;;;8.20;99.90;;;;;;4936503;29;20457;-83
2021/05/14 23:50:39;;;;;;;157.67;150.17;;;8.00;99.90;;;;;;4937421;29;20957;-84
2021/05/14 23:53:09;;;;;;;161.87;154.20;;;7.70;99.90;;;;;;4937712;29;20544;-84
2021/05/14 23:55:37;;;;;;;161.47;153.57;;;7.70;99.90;;;;;;4937467;29;20487;-84
2021/05/14 23:58:04;;;;;;;157.93;150.33;;;7.80;99.90;;;;;;4937246;29;20901;-84
